sensor_id;sensor_type;location;lat;lon;timestamp;pressure;altitude;pressure_sealevel;temperature;humidity
51083;BME280;37131;42.694;23.350;2022-07-18T00:02:21;96152.53;;;19.03;49.61
51083;BME280;37131;42.694;23.350;2022-07-18T00:04:47;96153.75;;;18.90;50.61
51083;BME280;37131;42.694;23.350;2022-07-18T00:07:12;96157.56;;;18.72;49.82
51083;BME280;37131;42.694;23.350;2022-07-18T00:09:42;96160.41;;;18.98;47.73
51083;BME280;37131;42.694;23.350;2022-07-18T00:12:08;96157.59;;;18.77;48.95
51083;BME280;37131;42.694;23.350;2022-07-18T00:14:35;96158.91;;;18.75;49.21
51083;BME280;37131;42.694;23.350;2022-07-18T00:17:01;96150.75;;;18.44;50.66
51083;BME280;37131;42.694;23.350;2022-07-18T00:19:27;96162.03;;;18.72;48.85
51083;BME280;37131;42.694;23.350;2022-07-18T00:21:53;96168.34;;;18.66;49.33
51083;BME280;37131;42.694;23.350;2022-07-18T00:24:19;96164.25;;;18.48;50.41
51083;BME280;37131;42.694;23.350;2022-07-18T00:26:44;96154.63;;;18.36;49.87
51083;BME280;37131;42.694;23.350;2022-07-18T00:29:10;96156.56;;;18.46;50.81
51083;BME280;37131;42.694;23.350;2022-07-18T00:31:35;96158.88;;;18.37;49.58
51083;BME280;37131;42.694;23.350;2022-07-18T00:34:01;96139.97;;;18.51;49.37
51083;BME280;37131;42.694;23.350;2022-07-18T00:36:28;96115.66;;;18.49;47.69
51083;BME280;37131;42.694;23.350;2022-07-18T00:38:53;96159.00;;;18.53;48.37
51083;BME280;37131;42.694;23.350;2022-07-18T00:41:19;96144.88;;;18.37;48.59
51083;BME280;37131;42.694;23.350;2022-07-18T00:43:44;96145.59;;;18.27;48.61
51083;BME280;37131;42.694;23.350;2022-07-18T00:46:10;96148.59;;;18.09;49.40
51083;BME280;37131;42.694;23.350;2022-07-18T00:48:40;96151.44;;;18.29;49.27
51083;BME280;37131;42.694;23.350;2022-07-18T00:51:07;96159.63;;;18.33;48.62
51083;BME280;37131;42.694;23.350;2022-07-18T00:53:32;96167.28;;;18.34;48.59
51083;BME280;37131;42.694;23.350;2022-07-18T00:55:59;96160.16;;;18.35;47.56
51083;BME280;37131;42.694;23.350;2022-07-18T00:58:24;96164.38;;;18.63;45.57
51083;BME280;37131;42.694;23.350;2022-07-18T01:00:50;96164.66;;;18.34;48.26
51083;BME280;37131;42.694;23.350;2022-07-18T01:03:34;96172.97;;;18.21;48.03
51083;BME280;37131;42.694;23.350;2022-07-18T01:05:59;96172.84;;;18.38;46.33
51083;BME280;37131;42.694;23.350;2022-07-18T01:08:25;96163.19;;;18.49;45.94
51083;BME280;37131;42.694;23.350;2022-07-18T01:10:50;96169.59;;;18.58;45.46
51083;BME280;37131;42.694;23.350;2022-07-18T01:13:17;96150.66;;;18.06;46.06
51083;BME280;37131;42.694;23.350;2022-07-18T01:15:43;96166.28;;;18.40;46.39
51083;BME280;37131;42.694;23.350;2022-07-18T01:18:08;96165.03;;;18.48;45.68
51083;BME280;37131;42.694;23.350;2022-07-18T01:20:33;96148.88;;;18.39;45.08
51083;BME280;37131;42.694;23.350;2022-07-18T01:22:59;96151.44;;;18.29;45.89
51083;BME280;37131;42.694;23.350;2022-07-18T01:25:25;96146.06;;;18.19;46.61
51083;BME280;37131;42.694;23.350;2022-07-18T01:27:51;96160.81;;;18.20;44.75
51083;BME280;37131;42.694;23.350;2022-07-18T01:30:17;96159.56;;;18.28;45.68
51083;BME280;37131;42.694;23.350;2022-07-18T01:32:43;96153.97;;;18.19;45.13
51083;BME280;37131;42.694;23.350;2022-07-18T01:35:09;96148.44;;;18.20;44.95
51083;BME280;37131;42.694;23.350;2022-07-18T01:37:34;96163.69;;;18.13;44.09
51083;BME280;37131;42.694;23.350;2022-07-18T01:40:00;96155.19;;;18.11;44.02
51083;BME280;37131;42.694;23.350;2022-07-18T01:42:25;96154.25;;;18.22;43.43
51083;BME280;37131;42.694;23.350;2022-07-18T01:44:51;96154.28;;;17.95;44.96
51083;BME280;37131;42.694;23.350;2022-07-18T01:47:16;96148.59;;;18.09;43.69
51083;BME280;37131;42.694;23.350;2022-07-18T01:49:41;96156.88;;;18.17;43.77
51083;BME280;37131;42.694;23.350;2022-07-18T01:52:08;96148.53;;;18.03;44.90
51083;BME280;37131;42.694;23.350;2022-07-18T01:54:35;96142.91;;;17.95;44.75
51083;BME280;37131;42.694;23.350;2022-07-18T01:57:02;96134.91;;;18.12;42.52
51083;BME280;37131;42.694;23.350;2022-07-18T01:59:28;96144.00;;;17.99;44.63
51083;BME280;37131;42.694;23.350;2022-07-18T02:01:53;96128.66;;;17.96;42.69
51083;BME280;37131;42.694;23.350;2022-07-18T02:04:19;96149.41;;;18.14;43.07
51083;BME280;37131;42.694;23.350;2022-07-18T02:06:44;96139.63;;;18.10;42.97
51083;BME280;37131;42.694;23.350;2022-07-18T02:09:10;96145.16;;;17.86;44.33
51083;BME280;37131;42.694;23.350;2022-07-18T02:11:36;96151.03;;;17.66;44.87
51083;BME280;37131;42.694;23.350;2022-07-18T02:14:03;96150.41;;;17.59;45.65
51083;BME280;37131;42.694;23.350;2022-07-18T02:16:29;96149.72;;;17.68;45.70
51083;BME280;37131;42.694;23.350;2022-07-18T02:18:55;96161.31;;;17.45;46.10
51083;BME280;37131;42.694;23.350;2022-07-18T02:21:21;96155.56;;;17.48;45.32
51083;BME280;37131;42.694;23.350;2022-07-18T02:23:46;96162.44;;;17.27;47.08
51083;BME280;37131;42.694;23.350;2022-07-18T02:26:12;96159.16;;;17.20;47.59
51083;BME280;37131;42.694;23.350;2022-07-18T02:28:38;96148.66;;;17.03;47.30
51083;BME280;37131;42.694;23.350;2022-07-18T02:31:04;96163.63;;;17.19;46.88
51083;BME280;37131;42.694;23.350;2022-07-18T02:33:31;96164.88;;;16.95;48.33
51083;BME280;37131;42.694;23.350;2022-07-18T02:35:57;96161.44;;;16.77;49.07
51083;BME280;37131;42.694;23.350;2022-07-18T02:38:22;96169.53;;;16.88;47.95
51083;BME280;37131;42.694;23.350;2022-07-18T02:40:47;96173.31;;;16.80;49.15
51083;BME280;37131;42.694;23.350;2022-07-18T02:43:13;96180.16;;;16.81;47.67
51083;BME280;37131;42.694;23.350;2022-07-18T02:45:38;96179.63;;;16.96;47.08
51083;BME280;37131;42.694;23.350;2022-07-18T02:48:04;96180.06;;;16.88;47.80
51083;BME280;37131;42.694;23.350;2022-07-18T02:50:29;96178.81;;;16.78;48.22
51083;BME280;37131;42.694;23.350;2022-07-18T02:52:54;96173.47;;;16.73;47.83
51083;BME280;37131;42.694;23.350;2022-07-18T02:55:21;96185.69;;;16.79;49.62
51083;BME280;37131;42.694;23.350;2022-07-18T02:57:48;96185.94;;;16.61;49.03
51083;BME280;37131;42.694;23.350;2022-07-18T03:00:14;96194.63;;;16.61;48.91
51083;BME280;37131;42.694;23.350;2022-07-18T03:02:40;96197.41;;;16.55;48.32
51083;BME280;37131;42.694;23.350;2022-07-18T03:05:07;96200.13;;;16.60;48.05
51083;BME280;37131;42.694;23.350;2022-07-18T03:07:32;96191.47;;;16.47;49.39
51083;BME280;37131;42.694;23.350;2022-07-18T03:09:58;96201.31;;;16.52;50.24
51083;BME280;37131;42.694;23.350;2022-07-18T03:12:23;96197.63;;;16.36;50.06
51083;BME280;37131;42.694;23.350;2022-07-18T03:14:49;96195.13;;;16.29;50.19
51083;BME280;37131;42.694;23.350;2022-07-18T03:17:15;96176.53;;;16.19;50.25
51083;BME280;37131;42.694;23.350;2022-07-18T03:19:40;96195.25;;;16.35;49.47
51083;BME280;37131;42.694;23.350;2022-07-18T03:22:06;96190.28;;;16.38;49.58
51083;BME280;37131;42.694;23.350;2022-07-18T03:24:31;96192.38;;;16.53;48.65
51083;BME280;37131;42.694;23.350;2022-07-18T03:26:57;96193.97;;;16.54;48.01
51083;BME280;37131;42.694;23.350;2022-07-18T03:29:23;96190.75;;;16.35;48.79
51083;BME280;37131;42.694;23.350;2022-07-18T03:31:48;96186.31;;;16.53;48.74
51083;BME280;37131;42.694;23.350;2022-07-18T03:34:14;96178.97;;;16.38;48.06
51083;BME280;37131;42.694;23.350;2022-07-18T03:36:40;96196.00;;;16.64;46.31
51083;BME280;37131;42.694;23.350;2022-07-18T03:39:06;96195.72;;;16.82;46.56
51083;BME280;37131;42.694;23.350;2022-07-18T03:41:32;96193.66;;;16.51;47.76
51083;BME280;37131;42.694;23.350;2022-07-18T03:43:57;96197.75;;;16.29;47.94
51083;BME280;37131;42.694;23.350;2022-07-18T03:46:23;96199.69;;;16.34;48.33
51083;BME280;37131;42.694;23.350;2022-07-18T03:48:48;96213.25;;;16.26;48.55
51083;BME280;37131;42.694;23.350;2022-07-18T03:51:14;96217.09;;;15.54;52.24
51083;BME280;37131;42.694;23.350;2022-07-18T03:53:39;96213.78;;;15.35;53.59
51083;BME280;37131;42.694;23.350;2022-07-18T03:56:05;96207.06;;;15.39;56.07
51083;BME280;37131;42.694;23.350;2022-07-18T03:58:30;96212.06;;;15.52;55.94
51083;BME280;37131;42.694;23.350;2022-07-18T04:00:56;96220.91;;;14.99;57.04
51083;BME280;37131;42.694;23.350;2022-07-18T04:03:22;96224.88;;;15.13;57.64
51083;BME280;37131;42.694;23.350;2022-07-18T04:05:48;96218.03;;;15.36;57.76
51083;BME280;37131;42.694;23.350;2022-07-18T04:08:14;96220.53;;;15.07;57.96
51083;BME280;37131;42.694;23.350;2022-07-18T04:10:39;96216.91;;;15.08;58.13
51083;BME280;37131;42.694;23.350;2022-07-18T04:13:06;96196.09;;;15.18;58.62
51083;BME280;37131;42.694;23.350;2022-07-18T04:15:32;96216.91;;;15.20;59.97
51083;BME280;37131;42.694;23.350;2022-07-18T04:17:58;96197.56;;;15.38;57.89
51083;BME280;37131;42.694;23.350;2022-07-18T04:20:24;96208.41;;;15.53;55.40
51083;BME280;37131;42.694;23.350;2022-07-18T04:22:52;96217.19;;;15.47;56.74
51083;BME280;37131;42.694;23.350;2022-07-18T04:25:20;96209.97;;;15.66;58.18
51083;BME280;37131;42.694;23.350;2022-07-18T04:27:46;96215.34;;;15.71;57.52
51083;BME280;37131;42.694;23.350;2022-07-18T04:30:13;96194.16;;;15.90;57.96
51083;BME280;37131;42.694;23.350;2022-07-18T04:32:39;96129.91;;;15.45;57.05
51083;BME280;37131;42.694;23.350;2022-07-18T04:35:05;96194.97;;;15.90;57.59
51083;BME280;37131;42.694;23.350;2022-07-18T04:37:31;96166.66;;;15.69;57.12
51083;BME280;37131;42.694;23.350;2022-07-18T04:39:58;96200.22;;;16.19;53.02
51083;BME280;37131;42.694;23.350;2022-07-18T04:42:24;96203.06;;;16.46;53.07
51083;BME280;37131;42.694;23.350;2022-07-18T04:44:49;96194.53;;;16.10;53.29
51083;BME280;37131;42.694;23.350;2022-07-18T04:47:14;96181.50;;;16.33;53.15
51083;BME280;37131;42.694;23.350;2022-07-18T04:49:40;96196.19;;;16.45;53.21
51083;BME280;37131;42.694;23.350;2022-07-18T04:52:05;96196.31;;;16.22;54.11
51083;BME280;37131;42.694;23.350;2022-07-18T04:54:31;96197.03;;;16.17;54.54
51083;BME280;37131;42.694;23.350;2022-07-18T04:56:56;96206.47;;;16.30;55.91
51083;BME280;37131;42.694;23.350;2022-07-18T04:59:21;96195.72;;;16.31;54.78
51083;BME280;37131;42.694;23.350;2022-07-18T05:01:47;96193.56;;;16.28;54.16
51083;BME280;37131;42.694;23.350;2022-07-18T05:04:12;96148.13;;;16.04;54.46
51083;BME280;37131;42.694;23.350;2022-07-18T05:06:37;96198.06;;;16.16;54.75
51083;BME280;37131;42.694;23.350;2022-07-18T05:09:03;96199.78;;;16.10;55.62
51083;BME280;37131;42.694;23.350;2022-07-18T05:11:28;96199.84;;;16.27;55.01
51083;BME280;37131;42.694;23.350;2022-07-18T05:13:54;96194.41;;;16.34;54.38
51083;BME280;37131;42.694;23.350;2022-07-18T05:16:19;96196.03;;;16.35;53.86
51083;BME280;37131;42.694;23.350;2022-07-18T05:18:45;96197.81;;;16.63;54.42
51083;BME280;37131;42.694;23.350;2022-07-18T05:21:10;96199.41;;;16.64;55.30
51083;BME280;37131;42.694;23.350;2022-07-18T05:23:35;96197.28;;;16.95;53.55
51083;BME280;37131;42.694;23.350;2022-07-18T05:26:01;96194.69;;;17.17;50.78
51083;BME280;37131;42.694;23.350;2022-07-18T05:28:26;96194.38;;;17.14;52.79
51083;BME280;37131;42.694;23.350;2022-07-18T05:30:51;96197.50;;;17.50;49.38
51083;BME280;37131;42.694;23.350;2022-07-18T05:33:19;96185.31;;;17.44;50.19
51083;BME280;37131;42.694;23.350;2022-07-18T05:35:45;96193.09;;;17.56;48.38
51083;BME280;37131;42.694;23.350;2022-07-18T05:38:10;96195.38;;;17.69;48.27
51083;BME280;37131;42.694;23.350;2022-07-18T05:40:36;96189.59;;;17.72;50.27
51083;BME280;37131;42.694;23.350;2022-07-18T05:43:01;96193.59;;;17.97;51.54
51083;BME280;37131;42.694;23.350;2022-07-18T05:45:28;96197.66;;;17.87;52.46
51083;BME280;37131;42.694;23.350;2022-07-18T05:47:53;96193.09;;;18.27;49.53
51083;BME280;37131;42.694;23.350;2022-07-18T05:50:19;96199.16;;;18.55;45.93
51083;BME280;37131;42.694;23.350;2022-07-18T05:52:45;96198.75;;;18.68;42.91
51083;BME280;37131;42.694;23.350;2022-07-18T05:55:10;96197.38;;;18.61;43.56
51083;BME280;37131;42.694;23.350;2022-07-18T05:57:36;96183.47;;;18.75;45.07
51083;BME280;37131;42.694;23.350;2022-07-18T06:00:07;96184.22;;;19.03;41.08
51083;BME280;37131;42.694;23.350;2022-07-18T06:02:32;96186.38;;;19.11;40.23
51083;BME280;37131;42.694;23.350;2022-07-18T06:04:58;96191.84;;;19.37;41.85
51083;BME280;37131;42.694;23.350;2022-07-18T06:07:24;96182.34;;;19.41;40.77
51083;BME280;37131;42.694;23.350;2022-07-18T06:09:50;96189.59;;;19.72;40.39
51083;BME280;37131;42.694;23.350;2022-07-18T06:12:15;96190.97;;;19.26;39.19
51083;BME280;37131;42.694;23.350;2022-07-18T06:14:41;96192.97;;;19.57;37.83
51083;BME280;37131;42.694;23.350;2022-07-18T06:17:06;96187.50;;;19.74;39.89
51083;BME280;37131;42.694;23.350;2022-07-18T06:19:32;96189.66;;;19.82;39.79
51083;BME280;37131;42.694;23.350;2022-07-18T06:21:58;96188.00;;;19.66;35.99
51083;BME280;37131;42.694;23.350;2022-07-18T06:24:24;96185.19;;;19.88;36.00
51083;BME280;37131;42.694;23.350;2022-07-18T06:26:49;96179.88;;;19.83;36.69
51083;BME280;37131;42.694;23.350;2022-07-18T06:29:15;96186.00;;;19.93;36.15
51083;BME280;37131;42.694;23.350;2022-07-18T06:31:41;96182.00;;;19.86;35.81
51083;BME280;37131;42.694;23.350;2022-07-18T06:34:06;96175.19;;;20.15;37.07
51083;BME280;37131;42.694;23.350;2022-07-18T06:36:32;96174.69;;;20.44;36.39
51083;BME280;37131;42.694;23.350;2022-07-18T06:38:57;96172.59;;;20.57;36.04
51083;BME280;37131;42.694;23.350;2022-07-18T06:41:23;96170.19;;;20.50;35.83
51083;BME280;37131;42.694;23.350;2022-07-18T06:43:48;96165.44;;;20.83;37.20
51083;BME280;37131;42.694;23.350;2022-07-18T06:46:13;96168.09;;;20.78;34.33
51083;BME280;37131;42.694;23.350;2022-07-18T06:48:39;96167.03;;;20.58;35.30
51083;BME280;37131;42.694;23.350;2022-07-18T06:51:05;96165.72;;;20.71;34.45
51083;BME280;37131;42.694;23.350;2022-07-18T06:53:31;96158.81;;;20.75;35.31
51083;BME280;37131;42.694;23.350;2022-07-18T06:55:57;96162.53;;;20.64;34.12
51083;BME280;37131;42.694;23.350;2022-07-18T06:58:23;96154.84;;;20.78;32.94
51083;BME280;37131;42.694;23.350;2022-07-18T07:00:49;96142.13;;;20.64;33.43
51083;BME280;37131;42.694;23.350;2022-07-18T07:03:15;96154.06;;;20.72;35.00
51083;BME280;37131;42.694;23.350;2022-07-18T07:05:41;96150.84;;;20.44;33.45
51083;BME280;37131;42.694;23.350;2022-07-18T07:08:06;96149.81;;;20.87;34.58
51083;BME280;37131;42.694;23.350;2022-07-18T07:10:31;96145.22;;;21.18;34.75
51083;BME280;37131;42.694;23.350;2022-07-18T07:12:58;96145.13;;;21.49;32.91
51083;BME280;37131;42.694;23.350;2022-07-18T07:15:23;96153.63;;;21.46;33.03
51083;BME280;37131;42.694;23.350;2022-07-18T07:17:50;96158.63;;;21.68;32.11
51083;BME280;37131;42.694;23.350;2022-07-18T07:20:16;96151.25;;;21.44;32.49
51083;BME280;37131;42.694;23.350;2022-07-18T07:22:49;96153.16;;;21.28;33.42
51083;BME280;37131;42.694;23.350;2022-07-18T07:25:15;96154.47;;;21.36;31.58
51083;BME280;37131;42.694;23.350;2022-07-18T07:27:41;96149.69;;;21.33;30.64
51083;BME280;37131;42.694;23.350;2022-07-18T07:30:08;96153.41;;;21.37;31.34
51083;BME280;37131;42.694;23.350;2022-07-18T07:32:35;96154.38;;;21.67;30.80
51083;BME280;37131;42.694;23.350;2022-07-18T07:35:01;96139.34;;;21.36;30.28
51083;BME280;37131;42.694;23.350;2022-07-18T07:37:27;96144.28;;;21.69;30.77
51083;BME280;37131;42.694;23.350;2022-07-18T07:39:52;96156.97;;;21.77;30.47
51083;BME280;37131;42.694;23.350;2022-07-18T07:42:18;96156.41;;;21.85;30.53
51083;BME280;37131;42.694;23.350;2022-07-18T07:44:43;96150.94;;;22.11;31.22
51083;BME280;37131;42.694;23.350;2022-07-18T07:47:08;96146.97;;;22.08;29.37
51083;BME280;37131;42.694;23.350;2022-07-18T07:49:34;96153.94;;;22.04;28.80
51083;BME280;37131;42.694;23.350;2022-07-18T07:52:00;96159.13;;;21.70;28.31
51083;BME280;37131;42.694;23.350;2022-07-18T07:54:26;96153.75;;;21.85;29.08
51083;BME280;37131;42.694;23.350;2022-07-18T07:56:51;96156.19;;;22.21;28.71
51083;BME280;37131;42.694;23.350;2022-07-18T07:59:16;96160.47;;;22.17;29.15
51083;BME280;37131;42.694;23.350;2022-07-18T08:01:42;96147.06;;;22.38;27.74
51083;BME280;37131;42.694;23.350;2022-07-18T08:04:08;96122.44;;;22.32;27.78
51083;BME280;37131;42.694;23.350;2022-07-18T08:06:33;96152.63;;;22.76;27.65
51083;BME280;37131;42.694;23.350;2022-07-18T08:08:58;96160.97;;;22.64;27.93
51083;BME280;37131;42.694;23.350;2022-07-18T08:11:24;96153.59;;;22.56;27.27
51083;BME280;37131;42.694;23.350;2022-07-18T08:13:49;96155.16;;;22.17;28.04
51083;BME280;37131;42.694;23.350;2022-07-18T08:16:15;96155.41;;;22.60;27.78
51083;BME280;37131;42.694;23.350;2022-07-18T08:18:40;96150.81;;;22.71;27.61
51083;BME280;37131;42.694;23.350;2022-07-18T08:21:05;96149.47;;;22.98;27.57
51083;BME280;37131;42.694;23.350;2022-07-18T08:23:31;96156.25;;;22.56;29.54
51083;BME280;37131;42.694;23.350;2022-07-18T08:25:56;96159.63;;;21.82;30.22
51083;BME280;37131;42.694;23.350;2022-07-18T08:28:22;96153.53;;;21.77;30.90
51083;BME280;37131;42.694;23.350;2022-07-18T08:30:47;96154.88;;;21.79;31.00
51083;BME280;37131;42.694;23.350;2022-07-18T08:33:12;96163.00;;;22.38;32.11
51083;BME280;37131;42.694;23.350;2022-07-18T08:35:38;96158.13;;;22.85;30.24
51083;BME280;37131;42.694;23.350;2022-07-18T08:38:03;96156.88;;;22.77;29.30
51083;BME280;37131;42.694;23.350;2022-07-18T08:40:29;96150.13;;;22.90;30.82
51083;BME280;37131;42.694;23.350;2022-07-18T08:42:56;96146.59;;;23.24;29.99
51083;BME280;37131;42.694;23.350;2022-07-18T08:45:22;96146.50;;;23.34;29.47
51083;BME280;37131;42.694;23.350;2022-07-18T08:47:49;96150.72;;;23.11;29.60
51083;BME280;37131;42.694;23.350;2022-07-18T08:50:15;96150.16;;;23.09;30.61
51083;BME280;37131;42.694;23.350;2022-07-18T08:52:40;96141.94;;;23.35;29.13
51083;BME280;37131;42.694;23.350;2022-07-18T08:55:07;96145.97;;;23.56;31.32
51083;BME280;37131;42.694;23.350;2022-07-18T08:57:33;96138.09;;;23.22;29.08
51083;BME280;37131;42.694;23.350;2022-07-18T08:59:59;96145.09;;;22.83;30.30
51083;BME280;37131;42.694;23.350;2022-07-18T09:02:28;96128.94;;;23.33;30.65
51083;BME280;37131;42.694;23.350;2022-07-18T09:04:54;96148.31;;;23.09;30.30
51083;BME280;37131;42.694;23.350;2022-07-18T09:07:27;96145.38;;;22.82;30.22
51083;BME280;37131;42.694;23.350;2022-07-18T09:09:54;96144.72;;;23.24;30.40
51083;BME280;37131;42.694;23.350;2022-07-18T09:12:20;96134.81;;;23.30;31.83
51083;BME280;37131;42.694;23.350;2022-07-18T09:14:46;96127.47;;;23.46;29.78
51083;BME280;37131;42.694;23.350;2022-07-18T09:22:30;96138.69;;;24.05;30.88
51083;BME280;37131;42.694;23.350;2022-07-18T09:32:49;96125.91;;;24.40;29.60
51083;BME280;37131;42.694;23.350;2022-07-18T09:35:19;96128.38;;;24.69;29.55
51083;BME280;37131;42.694;23.350;2022-07-18T09:40:28;96121.34;;;25.20;29.41
51083;BME280;37131;42.694;23.350;2022-07-18T09:43:00;96118.81;;;24.68;29.41
51083;BME280;37131;42.694;23.350;2022-07-18T09:45:37;96119.78;;;24.40;29.97
51083;BME280;37131;42.694;23.350;2022-07-18T09:48:08;96123.34;;;24.49;30.45
51083;BME280;37131;42.694;23.350;2022-07-18T09:50:41;96117.25;;;24.48;32.92
51083;BME280;37131;42.694;23.350;2022-07-18T09:55:46;96122.50;;;25.00;30.10
51083;BME280;37131;42.694;23.350;2022-07-18T09:58:15;96120.97;;;24.66;30.10
51083;BME280;37131;42.694;23.350;2022-07-18T10:00:40;96085.56;;;24.47;30.37
51083;BME280;37131;42.694;23.350;2022-07-18T10:03:07;96117.69;;;25.16;30.51
51083;BME280;37131;42.694;23.350;2022-07-18T10:05:35;96113.94;;;25.17;29.24
51083;BME280;37131;42.694;23.350;2022-07-18T10:08:04;96099.50;;;24.58;29.66
51083;BME280;37131;42.694;23.350;2022-07-18T10:10:30;96115.78;;;25.03;30.38
51083;BME280;37131;42.694;23.350;2022-07-18T10:12:58;96110.28;;;25.13;31.95
51083;BME280;37131;42.694;23.350;2022-07-18T10:15:28;96103.41;;;25.63;29.21
51083;BME280;37131;42.694;23.350;2022-07-18T10:17:55;96096.44;;;25.25;29.36
51083;BME280;37131;42.694;23.350;2022-07-18T10:20:29;96087.47;;;25.71;29.60
51083;BME280;37131;42.694;23.350;2022-07-18T10:22:59;96101.75;;;24.97;29.36
51083;BME280;37131;42.694;23.350;2022-07-18T10:25:26;96091.13;;;24.31;30.36
51083;BME280;37131;42.694;23.350;2022-07-18T10:28:04;96088.31;;;24.89;31.41
51083;BME280;37131;42.694;23.350;2022-07-18T10:30:35;96083.19;;;25.48;30.41
51083;BME280;37131;42.694;23.350;2022-07-18T10:33:03;96077.66;;;25.44;31.36
51083;BME280;37131;42.694;23.350;2022-07-18T10:36:30;96087.97;;;26.10;30.08
51083;BME280;37131;42.694;23.350;2022-07-18T10:38:38;96077.44;;;25.54;29.02
51083;BME280;37131;42.694;23.350;2022-07-18T10:41:13;96059.53;;;25.55;29.36
51083;BME280;37131;42.694;23.350;2022-07-18T10:43:43;96066.69;;;25.82;29.75
51083;BME280;37131;42.694;23.350;2022-07-18T10:46:10;96036.00;;;25.57;29.74
51083;BME280;37131;42.694;23.350;2022-07-18T10:51:08;96073.31;;;25.48;30.08
51083;BME280;37131;42.694;23.350;2022-07-18T10:56:18;96070.94;;;25.33;30.14
51083;BME280;37131;42.694;23.350;2022-07-18T10:58:44;96067.97;;;25.48;29.47
51083;BME280;37131;42.694;23.350;2022-07-18T11:01:17;96066.78;;;25.41;30.28
51083;BME280;37131;42.694;23.350;2022-07-18T11:03:43;96046.66;;;25.94;28.69
51083;BME280;37131;42.694;23.350;2022-07-18T11:06:09;96064.22;;;26.08;28.61
51083;BME280;37131;42.694;23.350;2022-07-18T11:08:35;96064.31;;;25.30;29.98
51083;BME280;37131;42.694;23.350;2022-07-18T11:11:08;96052.75;;;25.71;29.62
51083;BME280;37131;42.694;23.350;2022-07-18T11:13:34;96045.97;;;26.02;29.94
51083;BME280;37131;42.694;23.350;2022-07-18T11:16:04;96045.31;;;26.50;29.60
51083;BME280;37131;42.694;23.350;2022-07-18T11:21:21;96030.88;;;26.60;28.57
51083;BME280;37131;42.694;23.350;2022-07-18T11:23:49;96034.66;;;26.90;29.54
51083;BME280;37131;42.694;23.350;2022-07-18T11:26:22;96036.91;;;27.06;29.13
51083;BME280;37131;42.694;23.350;2022-07-18T11:28:56;96034.31;;;26.83;29.28
51083;BME280;37131;42.694;23.350;2022-07-18T11:31:21;95991.09;;;26.27;29.37
51083;BME280;37131;42.694;23.350;2022-07-18T11:33:49;96038.97;;;26.37;28.47
51083;BME280;37131;42.694;23.350;2022-07-18T11:36:38;96036.03;;;26.48;28.03
51083;BME280;37131;42.694;23.350;2022-07-18T11:39:03;96030.09;;;26.91;30.00
51083;BME280;37131;42.694;23.350;2022-07-18T11:41:29;95972.84;;;25.75;28.01
51083;BME280;37131;42.694;23.350;2022-07-18T11:43:55;96033.81;;;26.50;27.35
51083;BME280;37131;42.694;23.350;2022-07-18T11:46:23;96030.31;;;26.40;27.90
51083;BME280;37131;42.694;23.350;2022-07-18T11:48:58;96035.41;;;26.51;27.20
51083;BME280;37131;42.694;23.350;2022-07-18T11:51:23;96035.34;;;25.97;27.76
51083;BME280;37131;42.694;23.350;2022-07-18T11:53:51;96028.41;;;26.09;27.89
51083;BME280;37131;42.694;23.350;2022-07-18T11:56:19;96014.63;;;26.48;29.28
51083;BME280;37131;42.694;23.350;2022-07-18T11:58:46;96011.56;;;27.03;29.82
51083;BME280;37131;42.694;23.350;2022-07-18T12:01:12;96018.81;;;26.08;28.30
51083;BME280;37131;42.694;23.350;2022-07-18T12:03:43;96007.34;;;26.08;28.50
51083;BME280;37131;42.694;23.350;2022-07-18T12:06:18;96010.72;;;26.54;28.99
51083;BME280;37131;42.694;23.350;2022-07-18T12:08:54;96013.81;;;26.70;30.27
51083;BME280;37131;42.694;23.350;2022-07-18T12:11:29;96002.53;;;26.82;30.22
51083;BME280;37131;42.694;23.350;2022-07-18T12:19:07;95999.00;;;27.12;29.73
51083;BME280;37131;42.694;23.350;2022-07-18T12:24:30;95996.53;;;27.42;28.90
51083;BME280;37131;42.694;23.350;2022-07-18T12:27:09;95985.19;;;27.45;28.78
51083;BME280;37131;42.694;23.350;2022-07-18T12:32:54;95987.66;;;26.67;29.34
51083;BME280;37131;42.694;23.350;2022-07-18T12:35:27;95990.31;;;27.07;30.99
51083;BME280;37131;42.694;23.350;2022-07-18T12:38:13;95990.41;;;27.42;29.73
51083;BME280;37131;42.694;23.350;2022-07-18T12:43:35;95989.28;;;27.52;29.52
51083;BME280;37131;42.694;23.350;2022-07-18T12:46:06;95983.16;;;27.51;28.98
51083;BME280;37131;42.694;23.350;2022-07-18T12:48:32;95979.19;;;27.83;28.69
51083;BME280;37131;42.694;23.350;2022-07-18T12:51:00;95979.50;;;27.38;29.86
51083;BME280;37131;42.694;23.350;2022-07-18T12:53:28;95988.97;;;27.62;29.91
51083;BME280;37131;42.694;23.350;2022-07-18T12:55:54;95978.75;;;27.73;27.99
51083;BME280;37131;42.694;23.350;2022-07-18T12:58:20;95986.69;;;27.11;29.21
51083;BME280;37131;42.694;23.350;2022-07-18T13:00:46;95990.03;;;27.17;29.06
51083;BME280;37131;42.694;23.350;2022-07-18T13:03:12;95986.88;;;27.24;29.13
51083;BME280;37131;42.694;23.350;2022-07-18T13:05:38;95980.31;;;27.39;28.49
51083;BME280;37131;42.694;23.350;2022-07-18T13:08:03;95990.03;;;27.26;28.94
51083;BME280;37131;42.694;23.350;2022-07-18T13:10:32;95982.41;;;26.84;29.03
51083;BME280;37131;42.694;23.350;2022-07-18T13:12:57;95985.78;;;27.25;28.38
51083;BME280;37131;42.694;23.350;2022-07-18T13:15:22;95978.03;;;27.06;29.74
51083;BME280;37131;42.694;23.350;2022-07-18T13:17:48;95965.50;;;27.50;29.46
51083;BME280;37131;42.694;23.350;2022-07-18T13:20:17;95907.97;;;26.86;29.09
51083;BME280;37131;42.694;23.350;2022-07-18T13:22:43;95963.63;;;27.42;29.69
51083;BME280;37131;42.694;23.350;2022-07-18T13:25:09;95971.16;;;27.40;29.53
51083;BME280;37131;42.694;23.350;2022-07-18T13:27:36;95968.34;;;27.36;28.08
51083;BME280;37131;42.694;23.350;2022-07-18T13:30:03;95969.25;;;27.23;29.52